Airfield :
LOGIN :

Register | Disclaimer

   EN    FR    IT 

 










Legend :    VFR   Marginal VFR   IFR   Intensive IFR   Very Intensive IFR
Visi :
Ceiling :
>= 8 km
>= 3000ft
5 to 8 km
1000 to 3000 ft
1500m to 5 km
500 to 1000 ft
800 to 1500m
200 to 500 ft
< 800m
< 200 ft
Symbols :   Thunderstorms  Fog  Heavy snow  Heavy precipitations  Wind > 20 kt
SIGMETs :     Misc.  Thunderstorms  Icing  Turbulence  Mountain Waves  Volcanic Ashes






- Airport Elevation : 374 ft
- IATA code : LIS


LPPT - Lisboa Portela

CURRENT METAR :
  • 250230Z 32007KT 290V350 CAVOK 17/14 Q1022

EXPIRED METARs :
  • 250200Z 33005KT 240V030 CAVOK 17/14 Q1023
  • 250130Z 32007KT CAVOK 17/14 Q1023
  • 250100Z VRB02KT CAVOK 17/13 Q1023
  • 250030Z 32011KT CAVOK 18/13 Q1023
  • 250000Z 32013KT CAVOK 18/13 Q1023

TAF TAF LPPT
Valid from the 25 at 00:00 until the 26 at 06:00 UTC


242300Z 2500/2606 35007KT CAVOK
BECMG 2513/2515 32013KT
BECMG 2522/2524 34007KT
BECMG 2602/2604 VRB02KT



MET'MAP, your aeronautical weather chart ! - Copyright ORBIFLY December 2007 - Disclaimer

ORBIFLY MET'MAP TEAM :

Programming & Development : Alexandra Zaïnal
Concept & original design : Baudouin d'Aumeries
Assistance for programming : Marc-Olivier Méhu
Technical & hardware support : Manuel Goepfert

Contact : metmap@orbifly.com




SOURCES & CREDITS :

   NOAA